Time;durP1;ratioP1;P1;durP2;ratioP2;P2;SDS_P1;SDS_P2;PMS_P1;PMS_P2;Temp;Humidity;BMP_temperature;BMP_pressure;BME280_temperature;BME280_humidity;BME280_pressure;Samples;Min_cycle;Max_cycle;Signal;HPM_P1;HPM_P2
2021/05/10 00:01:09;;;;;;;5.88;3.42;;;;;;;-139.48;100.00;61774.03;4978610;28;20067;-69
2021/05/10 00:03:52;;;;;;;8.20;3.67;;;;;;;-139.48;100.00;61774.03;4992103;28;20052;-69
2021/05/10 00:06:36;;;;;;;6.03;3.67;;;;;;;-139.48;100.00;61774.03;4992736;28;20092;-69
2021/05/10 00:09:20;;;;;;;4.18;3.60;;;;;;;-139.48;100.00;61774.03;4978539;28;20470;-69
2021/05/10 00:12:05;;;;;;;8.68;3.53;;;;;;;-139.48;100.00;61774.03;4978669;28;20100;-69
2021/05/10 00:14:49;;;;;;;7.85;3.42;;;;;;;-139.48;100.00;61774.03;4978641;28;20152;-69
2021/05/10 00:17:33;;;;;;;4.18;3.50;;;;;;;-139.48;100.00;61774.03;4978612;28;20392;-69
2021/05/10 00:20:17;;;;;;;5.22;3.40;;;;;;;-139.48;100.00;61774.03;4992379;28;20053;-69
2021/05/10 00:23:01;;;;;;;5.85;3.60;;;;;;;-139.48;100.00;61774.03;4992043;28;20077;-70
2021/05/10 00:25:45;;;;;;;3.92;3.40;;;;;;;-139.48;100.00;61774.03;4992295;28;20044;-69
2021/05/10 00:28:30;;;;;;;4.15;3.60;;;;;;;-139.48;100.00;61774.03;4992338;28;20056;-69
2021/05/10 00:31:14;;;;;;;5.57;3.55;;;;;;;-139.48;100.00;61774.03;4992307;28;20061;-69
2021/05/10 00:33:57;;;;;;;4.68;3.30;;;;;;;-139.48;100.00;61774.03;4978387;28;20125;-70
2021/05/10 00:36:42;;;;;;;3.60;3.25;;;;;;;-139.48;100.00;61774.03;4992036;28;20526;-70
2021/05/10 00:39:26;;;;;;;8.20;3.90;;;;;;;-139.48;100.00;61774.03;4980644;28;20053;-70
2021/05/10 00:42:10;;;;;;;4.35;3.72;;;;;;;-139.48;100.00;61774.03;4982379;28;20080;-69
2021/05/10 00:44:54;;;;;;;4.85;3.53;;;;;;;-139.48;100.00;61774.03;4982321;28;20134;-70
2021/05/10 00:47:38;;;;;;;3.83;3.33;;;;;;;-139.48;100.00;61774.03;4995923;28;20463;-69
2021/05/10 00:50:23;;;;;;;5.78;3.83;;;;;;;-139.48;100.00;61774.03;4996247;28;20518;-70
2021/05/10 00:53:07;;;;;;;6.15;3.97;;;;;;;-139.48;100.00;61774.03;4982247;28;20053;-70
2021/05/10 00:55:51;;;;;;;3.90;3.53;;;;;;;-139.48;100.00;61774.03;4995762;28;20049;-70
2021/05/10 00:58:35;;;;;;;4.22;3.83;;;;;;;-139.48;100.00;61774.03;4996944;28;20049;-70
2021/05/10 01:01:19;;;;;;;6.15;4.13;;;;;;;-139.48;100.00;61774.03;4995576;28;20189;-68
2021/05/10 01:04:03;;;;;;;6.90;4.10;;;;;;;-139.48;100.00;61774.03;4981694;28;20049;-70
2021/05/10 01:06:47;;;;;;;5.10;4.05;;;;;;;-139.48;100.00;61774.03;4995965;28;20069;-70
2021/05/10 01:09:31;;;;;;;5.63;3.97;;;;;;;-139.48;100.00;61774.03;4995446;28;20468;-69
2021/05/10 01:12:15;;;;;;;6.07;3.85;;;;;;;-139.48;100.00;61774.03;4995659;28;20041;-69
2021/05/10 01:14:58;;;;;;;6.57;3.83;;;;;;;-139.48;100.00;61774.03;4995578;28;20403;-70
2021/05/10 01:17:43;;;;;;;4.00;3.60;;;;;;;-139.48;100.00;61774.03;4995528;28;20057;-70
2021/05/10 01:20:27;;;;;;;5.32;3.40;;;;;;;-139.48;100.00;61774.03;4995564;28;20103;-70
2021/05/10 01:23:11;;;;;;;5.47;3.53;;;;;;;-139.48;100.00;61774.03;4981561;28;20118;-70
2021/05/10 01:25:56;;;;;;;4.95;3.92;;;;;;;-139.48;100.00;61774.03;4981404;28;20045;-70
2021/05/10 01:28:41;;;;;;;5.05;3.42;;;;;;;-139.48;100.00;61774.03;4995319;28;20048;-70
2021/05/10 01:31:24;;;;;;;6.07;3.88;;;;;;;-139.48;100.00;61774.03;4995295;28;20411;-69
2021/05/10 01:34:11;;;;;;;4.07;3.33;;;;;;;-139.48;100.00;61774.03;4981273;28;20466;-69
2021/05/10 01:36:55;;;;;;;4.30;3.78;;;;;;;-139.48;100.00;61774.03;4981847;28;20054;-70
2021/05/10 01:39:39;;;;;;;8.35;3.83;;;;;;;-139.48;100.00;61774.03;4995122;28;20097;-68
2021/05/10 01:42:23;;;;;;;8.15;3.40;;;;;;;-139.48;100.00;61774.03;4994838;28;20474;-70
2021/05/10 01:45:08;;;;;;;6.40;3.58;;;;;;;-139.48;100.00;61774.03;4981262;28;20044;-70
2021/05/10 01:48:13;;;;;;;4.00;3.50;;;;;;;-139.48;100.00;61774.03;4981246;28;20064;-69
2021/05/10 01:50:56;;;;;;;6.00;3.78;;;;;;;-139.48;100.00;61774.03;4980688;28;20091;-70
2021/05/10 01:53:44;;;;;;;6.70;3.63;;;;;;;-139.48;100.00;61774.03;4995664;28;20534;-69
2021/05/10 01:56:28;;;;;;;7.57;3.70;;;;;;;-139.48;100.00;61774.03;4994909;28;20454;-70
2021/05/10 01:59:12;;;;;;;7.47;4.05;;;;;;;-139.48;100.00;61774.03;4981071;28;20414;-70
2021/05/10 02:01:56;;;;;;;5.35;3.40;;;;;;;-139.48;100.00;61774.03;4995727;28;20483;-70
2021/05/10 02:05:08;;;;;;;5.57;3.35;;;;;;;-139.48;100.00;61774.03;4994405;28;20438;-69
2021/05/10 02:07:55;;;;;;;4.38;3.55;;;;;;;-139.48;100.00;61774.03;4995840;28;20146;-69
2021/05/10 02:10:41;;;;;;;4.70;3.42;;;;;;;-139.48;100.00;61774.03;4994370;28;20526;-70
2021/05/10 02:13:25;;;;;;;6.32;3.65;;;;;;;-139.48;100.00;61774.03;4994367;28;20383;-69
2021/05/10 02:16:09;;;;;;;4.68;3.10;;;;;;;-139.48;100.00;61774.03;4980733;28;20053;-71
2021/05/10 02:18:56;;;;;;;4.40;3.90;;;;;;;-139.48;100.00;61774.03;4994439;28;20057;-70
2021/05/10 02:21:40;;;;;;;3.95;3.40;;;;;;;-139.48;100.00;61774.03;4994228;28;20128;-70
2021/05/10 02:24:24;;;;;;;5.50;3.78;;;;;;;-139.48;100.00;61774.03;4994276;28;20359;-70
2021/05/10 02:27:08;;;;;;;6.53;3.60;;;;;;;-139.48;100.00;61774.03;4995469;28;20080;-70
2021/05/10 02:29:52;;;;;;;4.78;3.42;;;;;;;-139.48;100.00;61774.03;4994220;28;20475;-69
2021/05/10 02:32:35;;;;;;;5.13;3.92;;;;;;;-139.48;100.00;61774.03;4980261;28;20100;-69
2021/05/10 02:35:21;;;;;;;7.97;3.92;;;;;;;-139.48;100.00;61774.03;4994048;28;20085;-70
2021/05/10 02:38:05;;;;;;;4.43;3.75;;;;;;;-139.48;100.00;61774.03;4994039;28;20057;-69
2021/05/10 02:40:50;;;;;;;5.85;3.80;;;;;;;-139.48;100.00;61774.03;4993778;28;20050;-68
2021/05/10 02:43:34;;;;;;;8.23;3.42;;;;;;;-139.48;100.00;61774.03;4993645;28;20061;-70
2021/05/10 02:46:18;;;;;;;6.40;3.80;;;;;;;-139.48;100.00;61774.03;4994899;28;20104;-69
2021/05/10 02:49:02;;;;;;;5.90;4.07;;;;;;;-139.48;100.00;61774.03;4993777;28;20092;-69
2021/05/10 02:51:46;;;;;;;4.30;3.72;;;;;;;-139.48;100.00;61774.03;4994840;28;20072;-70
2021/05/10 02:54:30;;;;;;;4.60;3.88;;;;;;;-139.48;100.00;61774.03;4993442;28;20533;-70
2021/05/10 02:57:15;;;;;;;4.88;3.42;;;;;;;-139.48;100.00;61774.03;4993704;28;20073;-69
2021/05/10 02:59:59;;;;;;;9.68;3.97;;;;;;;-139.48;100.00;61774.03;4993405;28;20053;-69
2021/05/10 03:02:44;;;;;;;4.10;3.50;;;;;;;-139.48;100.00;61774.03;4992862;28;20053;-69
2021/05/10 03:05:27;;;;;;;6.65;3.80;;;;;;;-139.48;100.00;61774.03;4980070;28;20049;-69
2021/05/10 03:08:11;;;;;;;4.90;4.03;;;;;;;-139.48;100.00;61774.03;4993272;28;20113;-69
2021/05/10 03:10:55;;;;;;;6.55;3.72;;;;;;;-139.48;100.00;61774.03;4993232;28;20120;-69
2021/05/10 03:13:39;;;;;;;4.40;3.60;;;;;;;-139.48;100.00;61774.03;4993260;28;20065;-70
2021/05/10 03:16:23;;;;;;;5.05;4.32;;;;;;;-139.48;100.00;61774.03;4979594;28;20061;-69
2021/05/10 03:19:10;;;;;;;5.72;3.80;;;;;;;-139.48;100.00;61774.03;4993274;28;20053;-69
2021/05/10 03:21:54;;;;;;;6.05;3.90;;;;;;;-139.48;100.00;61774.03;4993186;28;20049;-69
2021/05/10 03:24:38;;;;;;;4.50;3.53;;;;;;;-139.48;100.00;61774.03;4993348;28;20399;-70
2021/05/10 03:27:22;;;;;;;4.70;4.22;;;;;;;-139.48;100.00;61774.03;4993936;28;20478;-69
2021/05/10 03:30:12;;;;;;;4.57;3.55;;;;;;;-139.48;100.00;61774.03;4993095;28;20403;-69
2021/05/10 03:32:56;;;;;;;5.63;4.60;;;;;;;-139.48;100.00;61774.03;4993961;28;20045;-69
2021/05/10 03:35:40;;;;;;;8.65;4.50;;;;;;;-139.48;100.00;61774.03;4993203;28;20080;-68
2021/05/10 03:38:23;;;;;;;4.93;4.40;;;;;;;-139.48;100.00;61774.03;4993017;28;20116;-69
2021/05/10 03:41:07;;;;;;;5.57;4.72;;;;;;;-139.48;100.00;61774.03;4992923;28;20053;-69
2021/05/10 03:43:51;;;;;;;7.88;5.10;;;;;;;-139.48;100.00;61774.03;4992871;28;20105;-69
2021/05/10 03:46:35;;;;;;;9.07;4.72;;;;;;;-139.48;100.00;61774.03;4993877;28;20557;-69
2021/05/10 03:49:19;;;;;;;5.38;4.88;;;;;;;-139.48;100.00;61774.03;4994153;28;20105;-69
2021/05/10 03:52:03;;;;;;;5.75;4.18;;;;;;;-139.48;100.00;61774.03;4978977;28;20120;-69
2021/05/10 03:54:47;;;;;;;6.10;4.18;;;;;;;-139.48;100.00;61774.03;4992483;28;20092;-69
2021/05/10 03:57:31;;;;;;;4.32;3.90;;;;;;;-139.48;100.00;61774.03;4978960;28;20447;-68
2021/05/10 04:00:17;;;;;;;5.40;4.03;;;;;;;-139.48;100.00;61774.03;4993976;28;20057;-69
2021/05/10 04:03:02;;;;;;;3.83;3.42;;;;;;;-139.48;100.00;61774.03;4978417;28;20133;-69
2021/05/10 04:14:07;;;;;;;5.80;3.92;;;;;;;-139.48;100.00;61774.03;4993507;28;20049;-70
2021/05/10 04:16:51;;;;;;;5.85;4.05;;;;;;;-139.48;100.00;61774.03;4993269;28;20049;-70
2021/05/10 04:19:35;;;;;;;6.55;4.65;;;;;;;-139.48;100.00;61774.03;4992437;28;20054;-70
2021/05/10 04:22:19;;;;;;;7.90;4.43;;;;;;;-139.48;100.00;61774.03;4992493;28;20505;-70
2021/05/10 04:25:03;;;;;;;6.03;4.50;;;;;;;-139.48;100.00;61774.03;4992110;28;20200;-70
2021/05/10 04:27:48;;;;;;;7.35;4.65;;;;;;;-139.48;100.00;61774.03;4992028;28;20101;-70
2021/05/10 04:30:32;;;;;;;6.10;4.15;;;;;;;-139.48;100.00;61774.03;4993369;28;20053;-70
2021/05/10 04:33:28;;;;;;;6.90;4.72;;;;;;;-139.48;100.00;61774.03;4993378;28;20105;-70
2021/05/10 04:36:12;;;;;;;6.50;4.53;;;;;;;-139.48;100.00;61774.03;4992498;28;20053;-70
2021/05/10 04:38:56;;;;;;;8.13;4.95;;;;;;;-139.48;100.00;61774.03;4978250;28;20550;-70
2021/05/10 04:41:40;;;;;;;7.68;4.57;;;;;;;-139.48;100.00;61774.03;4993121;28;20507;-69
2021/05/10 04:44:23;;;;;;;5.05;4.10;;;;;;;-139.48;100.00;61774.03;4992180;28;20518;-70
2021/05/10 04:47:07;;;;;;;6.10;3.85;;;;;;;-139.48;100.00;61774.03;4992212;28;20052;-69
2021/05/10 04:49:51;;;;;;;4.97;4.18;;;;;;;-139.48;100.00;61774.03;4993015;28;20096;-70
2021/05/10 04:52:36;;;;;;;8.73;4.28;;;;;;;-139.48;100.00;61774.03;4993462;28;20045;-70
2021/05/10 04:55:20;;;;;;;8.65;4.07;;;;;;;-139.48;100.00;61774.03;4991998;28;20215;-70
2021/05/10 04:58:05;;;;;;;5.63;3.97;;;;;;;-139.48;100.00;61774.03;4978293;28;20104;-69
2021/05/10 05:00:49;;;;;;;9.60;4.07;;;;;;;-139.48;100.00;61774.03;4991801;28;20100;-69
2021/05/10 05:03:33;;;;;;;4.55;4.10;;;;;;;-139.48;100.00;61774.03;4993258;28;20041;-69
2021/05/10 05:06:17;;;;;;;7.32;3.72;;;;;;;-139.48;100.00;61774.03;4991988;28;20093;-69
2021/05/10 05:09:01;;;;;;;4.82;3.70;;;;;;;-139.48;100.00;61774.03;4992632;28;20050;-69
2021/05/10 05:11:44;;;;;;;9.35;3.83;;;;;;;-139.48;100.00;61774.03;4991962;28;20459;-67
2021/05/10 05:14:28;;;;;;;7.78;3.75;;;;;;;-139.48;100.00;61774.03;4978185;28;20057;-69
2021/05/10 05:17:12;;;;;;;8.55;4.10;;;;;;;-139.48;100.00;61774.03;4991797;28;20080;-69
2021/05/10 05:19:56;;;;;;;4.68;3.83;;;;;;;-139.48;100.00;61774.03;4977999;28;20056;-69
2021/05/10 05:22:40;;;;;;;6.03;3.75;;;;;;;-139.48;100.00;61774.03;4977743;28;20053;-69
2021/05/10 05:25:24;;;;;;;5.60;3.70;;;;;;;-139.48;100.00;61774.03;4993342;28;20384;-69
2021/05/10 05:28:08;;;;;;;3.78;3.40;;;;;;;-139.48;100.00;61774.03;4995226;28;20061;-69
2021/05/10 05:30:56;;;;;;;7.13;4.20;;;;;;;-139.48;100.00;61774.03;4996567;28;20049;-69
2021/05/10 05:33:40;;;;;;;5.85;3.88;;;;;;;-139.48;100.00;61774.03;4981471;28;20134;-69
2021/05/10 05:36:24;;;;;;;6.65;3.72;;;;;;;-139.48;100.00;61774.03;4995911;28;20553;-69
2021/05/10 05:39:08;;;;;;;12.07;4.60;;;;;;;-139.48;100.00;61774.03;4995168;28;20045;-69
2021/05/10 05:41:52;;;;;;;13.32;4.50;;;;;;;-139.48;100.00;61774.03;4994858;28;20109;-69
2021/05/10 05:44:37;;;;;;;5.63;3.95;;;;;;;-139.48;100.00;61774.03;4995964;28;20049;-69
2021/05/10 05:47:25;;;;;;;4.68;4.18;;;;;;;-139.48;100.00;61774.03;4995205;28;20422;-69
2021/05/10 05:50:09;;;;;;;5.70;4.70;;;;;;;-139.48;100.00;61774.03;4994859;28;20081;-69
2021/05/10 05:52:53;;;;;;;5.75;4.72;;;;;;;-139.48;100.00;61774.03;4994556;28;20053;-69
2021/05/10 05:55:37;;;;;;;8.23;4.72;;;;;;;-139.48;100.00;61774.03;4995631;28;20431;-69
2021/05/10 05:58:21;;;;;;;7.32;4.55;;;;;;;-139.48;100.00;61774.03;4980924;28;20200;-68
2021/05/10 06:01:05;;;;;;;7.10;5.03;;;;;;;-139.48;100.00;61774.03;4994639;28;20053;-68
2021/05/10 06:03:49;;;;;;;9.35;5.70;;;;;;;-139.48;100.00;61774.03;4980992;28;20125;-69
2021/05/10 06:06:33;;;;;;;5.10;4.15;;;;;;;-139.48;100.00;61774.03;4995449;28;20049;-69
2021/05/10 06:09:17;;;;;;;7.13;4.30;;;;;;;-139.48;100.00;61774.03;4994431;28;20096;-69
2021/05/10 06:12:01;;;;;;;9.98;5.43;;;;;;;-139.48;100.00;61774.03;4994336;28;20101;-69
2021/05/10 06:14:44;;;;;;;7.85;4.63;;;;;;;-139.48;100.00;61774.03;4995326;28;20045;-69
2021/05/10 06:17:29;;;;;;;9.52;5.50;;;;;;;-139.48;100.00;61774.03;4994239;28;20140;-69
2021/05/10 06:20:14;;;;;;;13.95;4.90;;;;;;;-139.48;100.00;61774.03;4994040;28;20077;-69
2021/05/10 06:22:58;;;;;;;9.30;4.45;;;;;;;-139.48;100.00;61774.03;4994150;28;20502;-69
2021/05/10 06:25:42;;;;;;;5.05;4.55;;;;;;;-139.48;100.00;61774.03;4994276;28;20497;-69
2021/05/10 06:28:26;;;;;;;7.88;5.15;;;;;;;-139.48;100.00;61774.03;4994128;28;20146;-68
2021/05/10 06:31:11;;;;;;;7.72;4.72;;;;;;;-139.48;100.00;61774.03;4995539;28;20510;-69
2021/05/10 06:33:55;;;;;;;10.50;4.65;;;;;;;-139.48;100.00;61774.03;4993955;28;20049;-69
2021/05/10 06:36:39;;;;;;;11.07;4.63;;;;;;;-139.48;100.00;61774.03;4994114;28;20561;-69
2021/05/10 06:39:24;;;;;;;11.70;4.35;;;;;;;-139.48;100.00;61774.03;4979985;28;20100;-68
2021/05/10 06:42:08;;;;;;;7.55;3.95;;;;;;;-139.48;100.00;61774.03;4980392;28;20438;-69
2021/05/10 06:44:53;;;;;;;11.73;3.90;;;;;;;-139.48;100.00;61774.03;4993926;28;20415;-69
2021/05/10 06:47:41;;;;;;;5.38;3.90;;;;;;;-139.48;100.00;61774.03;4993618;28;20510;-68
2021/05/10 06:50:25;;;;;;;7.55;3.67;;;;;;;-139.48;100.00;61774.03;4980135;28;20411;-69
2021/05/10 06:53:09;;;;;;;8.13;3.38;;;;;;;-139.48;100.00;61774.03;4994828;28;20053;-69
2021/05/10 06:55:55;;;;;;;6.60;2.70;;;;;;;-139.48;100.00;61774.03;4994713;28;20141;-69
2021/05/10 06:58:39;;;;;;;12.43;3.03;;;;;;;-139.48;100.00;61774.03;4993363;28;20100;-69
2021/05/10 07:01:23;;;;;;;2.67;1.90;;;;;;;-139.48;100.00;61774.03;4993595;28;20048;-69
2021/05/10 07:04:06;;;;;;;3.45;2.00;;;;;;;-139.48;100.00;61774.03;4979861;28;20053;-68
2021/05/10 07:06:51;;;;;;;6.10;2.00;;;;;;;-139.48;100.00;61774.03;4979728;28;20175;-70
2021/05/10 07:09:35;;;;;;;6.15;2.00;;;;;;;-139.48;100.00;61774.03;4993060;28;20549;-69
2021/05/10 07:12:19;;;;;;;3.47;1.65;;;;;;;-139.48;100.00;61774.03;4979479;28;20069;-69
2021/05/10 07:15:03;;;;;;;2.92;2.17;;;;;;;-139.48;100.00;61774.03;4993230;28;20057;-69
2021/05/10 07:17:47;;;;;;;6.45;2.00;;;;;;;-139.48;100.00;61774.03;4993004;28;20169;-69
2021/05/10 07:20:31;;;;;;;4.05;2.35;;;;;;;-139.48;100.00;61774.03;4979382;28;20105;-68
2021/05/10 07:23:19;;;;;;;5.05;2.20;;;;;;;-139.48;100.00;61774.03;4979437;28;20495;-69
2021/05/10 07:26:03;;;;;;;4.05;1.95;;;;;;;-139.48;100.00;61774.03;4993303;28;20088;-69
2021/05/10 07:28:47;;;;;;;4.57;2.28;;;;;;;-139.48;100.00;61774.03;4992977;28;20463;-70
2021/05/10 07:31:31;;;;;;;5.45;2.03;;;;;;;-139.48;100.00;61774.03;4994518;28;20411;-68
2021/05/10 07:34:15;;;;;;;7.13;2.10;;;;;;;-139.48;100.00;61774.03;4993635;28;20140;-70
2021/05/10 07:36:59;;;;;;;3.70;1.75;;;;;;;-139.48;100.00;61774.03;4979522;28;20510;-65
2021/05/10 07:39:43;;;;;;;4.03;1.83;;;;;;;-139.48;100.00;61774.03;4992608;28;20093;-68
2021/05/10 07:42:26;;;;;;;4.30;1.90;;;;;;;-139.48;100.00;61774.03;4994464;28;20050;-68
2021/05/10 07:45:10;;;;;;;;;;;;;;;-139.48;100.00;61774.03;4999886;28;20065;-69
2021/05/10 07:47:55;;;;;;;3.27;1.80;;;;;;;-139.48;100.00;61774.03;5001685;28;19921;-68
2021/05/10 07:50:39;;;;;;;2.85;1.88;;;;;;;-139.48;100.00;61774.03;4992738;28;20100;-68
2021/05/10 07:53:23;;;;;;;2.00;1.80;;;;;;;-139.48;100.00;61774.03;4992795;28;20498;-69
2021/05/10 07:56:07;;;;;;;;;;;;;;;-139.48;100.00;61774.03;4979171;28;20053;-69
2021/05/10 07:58:52;;;;;;;2.93;1.63;;;;;;;-139.48;100.00;61774.03;4993473;28;19920;-69
2021/05/10 08:01:37;;;;;;;6.82;1.85;;;;;;;-139.48;100.00;61774.03;4992283;28;20096;-69
2021/05/10 08:04:21;;;;;;;3.22;1.75;;;;;;;-139.48;100.00;61774.03;4978702;28;20116;-69
2021/05/10 08:07:05;;;;;;;3.13;1.60;;;;;;;-139.48;100.00;61774.03;4993215;28;20049;-68
2021/05/10 08:09:48;;;;;;;3.72;1.42;;;;;;;-139.48;100.00;61774.03;4993862;28;20081;-69
2021/05/10 08:12:33;;;;;;;2.05;1.67;;;;;;;-139.48;100.00;61774.03;4992404;28;20057;-67
2021/05/10 08:15:17;;;;;;;6.45;1.90;;;;;;;-139.48;100.00;61774.03;4992426;28;20113;-70
2021/05/10 08:18:01;;;;;;;;;;;;;;;-139.48;100.00;61774.03;4994643;28;20045;-69
2021/05/10 08:20:46;;;;;;;1.60;1.37;;;;;;;-139.48;100.00;61774.03;4980608;28;19964;-69
2021/05/10 08:23:29;;;;;;;1.70;1.08;;;;;;;-139.48;100.00;61774.03;4980772;28;20566;-68
2021/05/10 08:26:13;;;;;;;2.22;1.40;;;;;;;-139.48;100.00;61774.03;4993750;28;20171;-68
2021/05/10 08:28:57;;;;;;;;;;;;;;;-139.48;100.00;61774.03;4979273;28;20092;-68
2021/05/10 08:31:43;;;;;;;1.27;1.17;;;;;;;-139.48;100.00;61774.03;4992134;28;19936;-68
2021/05/10 08:34:27;;;;;;;4.18;1.20;;;;;;;-139.48;100.00;61774.03;4978709;28;20169;-68
2021/05/10 08:37:13;;;;;;;2.10;1.20;;;;;;;-139.48;100.00;61774.03;4993296;28;20073;-68
2021/05/10 08:39:57;;;;;;;3.00;0.80;;;;;;;-139.48;100.00;61774.03;4992269;28;20101;-68
2021/05/10 08:42:43;;;;;;;1.30;0.90;;;;;;;-139.48;100.00;61774.03;4978461;28;20049;-67
2021/05/10 08:45:28;;;;;;;1.63;0.98;;;;;;;-139.48;100.00;61774.03;4992998;28;20049;-68
2021/05/10 08:48:12;;;;;;;1.15;1.02;;;;;;;-139.48;100.00;61774.03;4991877;28;20088;-67
2021/05/10 08:50:56;;;;;;;1.25;1.10;;;;;;;-139.48;100.00;61774.03;4992157;28;20130;-68
2021/05/10 08:53:41;;;;;;;2.45;0.90;;;;;;;-139.48;100.00;61774.03;4978333;28;20050;-69
2021/05/10 08:56:25;;;;;;;3.70;1.27;;;;;;;-139.48;100.00;61774.03;4978286;28;20073;-70
2021/05/10 08:59:09;;;;;;;0.95;0.70;;;;;;;-139.48;100.00;61774.03;4978266;28;20129;-68
2021/05/10 09:01:58;;;;;;;2.97;0.80;;;;;;;-139.48;100.00;61774.03;4996586;28;20045;-70
2021/05/10 09:04:43;;;;;;;0.50;0.50;;;;;;;-139.48;100.00;61774.03;4981991;28;20049;-69
2021/05/10 09:07:27;;;;;;;0.50;0.50;;;;;;;-139.48;100.00;61774.03;4995652;28;20045;-70
2021/05/10 09:10:13;;;;;;;0.60;0.50;;;;;;;-139.48;100.00;61774.03;4981873;28;20057;-70
2021/05/10 09:12:57;;;;;;;4.85;0.82;;;;;;;-139.48;100.00;61774.03;4995554;28;20049;-69
2021/05/10 09:15:41;;;;;;;1.02;0.60;;;;;;;-139.48;100.00;61774.03;4997203;28;20109;-69
2021/05/10 09:18:25;;;;;;;0.50;0.50;;;;;;;-139.48;100.00;61774.03;4996537;28;20096;-67
2021/05/10 09:21:10;;;;;;;2.22;0.60;;;;;;;-139.48;100.00;61774.03;4996436;28;20120;-69
2021/05/10 09:23:55;;;;;;;0.63;0.63;;;;;;;-139.48;100.00;61774.03;4995609;28;20089;-69
2021/05/10 09:26:39;;;;;;;3.45;0.85;;;;;;;-139.48;100.00;61774.03;4995281;28;20089;-69
2021/05/10 09:29:26;;;;;;;0.50;0.50;;;;;;;-139.48;100.00;61774.03;4996115;28;20129;-69
2021/05/10 09:32:26;;;;;;;2.28;0.60;;;;;;;-139.48;100.00;61774.03;4995315;28;20103;-69
2021/05/10 09:35:27;;;;;;;2.03;0.60;;;;;;;-139.48;100.00;61774.03;4994831;28;20049;-69
2021/05/10 09:38:12;;;;;;;3.08;0.63;;;;;;;-139.48;100.00;61774.03;4995024;28;20053;-69
2021/05/10 09:41:04;;;;;;;0.82;0.60;;;;;;;-139.48;100.00;61774.03;4996024;28;20057;-69
2021/05/10 09:43:58;;;;;;;1.30;0.60;;;;;;;-139.48;100.00;61774.03;4981453;28;20105;-69
2021/05/10 09:46:43;;;;;;;3.00;0.60;;;;;;;-139.48;100.00;61774.03;4981495;28;20556;-69
2021/05/10 09:49:46;;;;;;;0.47;0.47;;;;;;;-139.48;100.00;61774.03;4980993;28;20431;-69
2021/05/10 09:52:32;;;;;;;0.57;0.50;;;;;;;-139.48;100.00;61774.03;4994913;28;20076;-69
2021/05/10 09:55:16;;;;;;;2.65;0.70;;;;;;;-139.48;100.00;61774.03;4981426;28;20141;-69
2021/05/10 09:58:00;;;;;;;0.88;0.55;;;;;;;-139.48;100.00;61774.03;4994826;28;20531;-69
2021/05/10 10:00:47;;;;;;;0.43;0.40;;;;;;;-139.48;100.00;61774.03;4995865;28;20419;-69
2021/05/10 10:03:36;;;;;;;1.73;0.60;;;;;;;-139.48;100.00;61774.03;4994535;28;20128;-69
2021/05/10 10:06:20;;;;;;;3.20;0.50;;;;;;;-139.48;100.00;61774.03;4995827;28;20085;-69
2021/05/10 10:09:04;;;;;;;0.40;0.40;;;;;;;-139.48;100.00;61774.03;4994581;28;20123;-69
2021/05/10 10:11:48;;;;;;;0.80;0.70;;;;;;;-139.48;100.00;61774.03;4994783;28;20041;-69
2021/05/10 10:14:32;;;;;;;0.70;0.50;;;;;;;-139.48;100.00;61774.03;4994646;28;20521;-70
2021/05/10 10:17:16;;;;;;;;;;;;;;;-139.48;100.00;61774.03;4995714;28;20052;-69
2021/05/10 10:20:04;;;;;;;0.98;0.38;;;;;;;-139.48;100.00;61774.03;4994693;28;19920;-69
2021/05/10 10:22:50;;;;;;;0.40;0.40;;;;;;;-139.48;100.00;61774.03;4995692;22;20096;-68
2021/05/10 10:25:35;;;;;;;2.15;0.50;;;;;;;-139.48;100.00;61774.03;4994224;28;20196;-69
2021/05/10 10:28:21;;;;;;;1.25;0.68;;;;;;;-139.48;100.00;61774.03;4980553;28;20046;-69
2021/05/10 10:31:13;;;;;;;2.85;0.60;;;;;;;-139.48;100.00;61774.03;4994194;28;20048;-69
2021/05/10 10:33:59;;;;;;;0.57;0.50;;;;;;;-139.48;100.00;61774.03;4980198;28;20136;-68
2021/05/10 10:36:45;;;;;;;0.90;0.60;;;;;;;-139.48;100.00;61774.03;4995187;28;20136;-69
2021/05/10 10:39:32;;;;;;;0.60;0.40;;;;;;;-139.48;100.00;61774.03;4980425;28;20134;-69
2021/05/10 10:42:27;;;;;;;0.90;0.55;;;;;;;-139.48;100.00;61774.03;4980646;28;20403;-69
2021/05/10 10:45:11;;;;;;;0.40;0.40;;;;;;;-139.48;100.00;61774.03;4980801;28;20056;-68
2021/05/10 10:48:05;;;;;;;2.35;0.50;;;;;;;-139.48;100.00;61774.03;4980042;28;20134;-69
2021/05/10 10:50:59;;;;;;;1.90;0.50;;;;;;;-139.48;100.00;61774.03;4993745;28;20080;-69
2021/05/10 10:53:55;;;;;;;0.63;0.43;;;;;;;-139.48;100.00;61774.03;4993769;28;20046;-69
2021/05/10 10:56:58;;;;;;;0.60;0.60;;;;;;;-139.48;100.00;61774.03;4993911;28;20100;-69
2021/05/10 10:59:53;;;;;;;0.40;0.40;;;;;;;-139.48;100.00;61774.03;4980387;28;20081;-69
2021/05/10 11:02:44;;;;;;;;;;;;;;;-139.48;100.00;61774.03;4993936;28;20089;-69
2021/05/10 11:05:28;;;;;;;1.40;0.57;;;;;;;-139.48;100.00;61774.03;4979645;28;19924;-69
2021/05/10 11:08:14;;;;;;;0.50;0.35;;;;;;;-139.48;100.00;61774.03;4979352;28;20136;-69
2021/05/10 11:10:59;;;;;;;0.90;0.45;;;;;;;-139.48;100.00;61774.03;4979886;28;20503;-68
2021/05/10 11:13:43;;;;;;;0.50;0.50;;;;;;;-139.48;100.00;61774.03;4979694;28;20112;-69
2021/05/10 11:16:45;;;;;;;0.30;0.30;;;;;;;-139.48;100.00;61774.03;4979605;28;20084;-69
2021/05/10 11:19:30;;;;;;;0.30;0.30;;;;;;;-139.48;100.00;61774.03;4993521;28;20415;-69
2021/05/10 11:22:47;;;;;;;0.70;0.60;;;;;;;-139.48;100.00;61774.03;4978899;28;20049;-69
2021/05/10 11:25:39;;;;;;;0.30;0.30;;;;;;;-139.48;100.00;61774.03;4990675;28;20100;-68
2021/05/10 11:28:29;;;;;;;1.10;0.30;;;;;;;-139.48;100.00;61774.03;4993102;28;20045;-69
2021/05/10 11:31:15;;;;;;;0.80;0.50;;;;;;;-139.48;100.00;61774.03;4994104;28;20104;-69
2021/05/10 11:33:59;;;;;;;1.15;0.47;;;;;;;-139.48;100.00;61774.03;4992741;28;20523;-68
2021/05/10 11:36:53;;;;;;;0.30;0.30;;;;;;;-139.48;100.00;61774.03;4994063;28;20050;-69
2021/05/10 11:39:39;;;;;;;0.77;0.52;;;;;;;-139.48;100.00;61774.03;4979319;28;20100;-69
2021/05/10 11:42:27;;;;;;;0.30;0.30;;;;;;;-139.48;100.00;61774.03;4992559;28;20505;-69
2021/05/10 11:45:11;;;;;;;0.30;0.30;;;;;;;-139.48;100.00;61774.03;4992873;28;20535;-69
2021/05/10 11:47:57;;;;;;;0.22;0.22;;;;;;;-139.48;100.00;61774.03;4992831;28;20053;-67
2021/05/10 11:50:45;;;;;;;0.38;0.30;;;;;;;-139.48;100.00;61774.03;4992811;28;20104;-68
2021/05/10 11:53:29;;;;;;;1.08;0.20;;;;;;;-139.48;100.00;61774.03;4979087;28;20058;-68
2021/05/10 11:56:27;;;;;;;0.40;0.40;;;;;;;-139.48;100.00;61774.03;4978960;28;20053;-68
2021/05/10 12:02:18;;;;;;;1.65;0.40;;;;;;;-139.48;100.00;61774.03;4993538;28;20518;-68
2021/05/10 12:05:05;;;;;;;0.63;0.63;;;;;;;-139.48;100.00;61774.03;4992679;28;20105;-68
2021/05/10 12:07:49;;;;;;;0.30;0.30;;;;;;;-139.48;100.00;61774.03;4993262;28;20204;-68
2021/05/10 12:10:37;;;;;;;0.30;0.30;;;;;;;-139.48;100.00;61774.03;4992362;28;20148;-69
2021/05/10 12:13:29;;;;;;;0.35;0.35;;;;;;;-139.48;100.00;61774.03;4992230;28;20113;-67
2021/05/10 12:16:13;;;;;;;0.55;0.50;;;;;;;-139.48;100.00;61774.03;4993497;28;20089;-68
2021/05/10 12:18:57;;;;;;;0.40;0.40;;;;;;;-139.48;100.00;61774.03;4993243;28;20093;-69
2021/05/10 12:21:41;;;;;;;;;;;;;;;-139.48;100.00;61774.03;4993559;28;20049;-69
2021/05/10 12:24:25;;;;;;;0.32;0.32;;;;;;;-139.48;100.00;61774.03;4992328;28;19965;-69
2021/05/10 12:27:09;;;;;;;1.13;0.40;;;;;;;-139.48;100.00;61774.03;4992326;28;20100;-69
2021/05/10 12:29:54;;;;;;;0.65;0.57;;;;;;;-139.48;100.00;61774.03;4978507;28;20077;-68
2021/05/10 12:32:39;;;;;;;0.45;0.40;;;;;;;-139.48;100.00;61774.03;4992197;28;20403;-68
2021/05/10 12:35:26;;;;;;;0.50;0.50;;;;;;;-139.48;100.00;61774.03;4980322;28;20124;-68
2021/05/10 12:38:11;;;;;;;1.80;0.50;;;;;;;-139.48;100.00;61774.03;4996462;28;20064;-68
2021/05/10 12:40:54;;;;;;;0.40;0.40;;;;;;;-139.48;100.00;61774.03;4997321;28;20053;-68
2021/05/10 12:43:46;;;;;;;1.67;0.52;;;;;;;-139.48;100.00;61774.03;4982241;28;20116;-68
2021/05/10 12:46:42;;;;;;;0.85;0.60;;;;;;;-139.48;100.00;61774.03;4996210;28;20521;-68